sensor_id;sensor_type;location;lat;lon;timestamp;temperature;humidity
10848;DHT22;5477;48.806;9.154;2022-07-05T00:01:31;17.20;99.90
10848;DHT22;5477;48.806;9.154;2022-07-05T00:04:02;17.10;99.90
10848;DHT22;5477;48.806;9.154;2022-07-05T00:06:30;17.00;99.90
10848;DHT22;5477;48.806;9.154;2022-07-05T00:08:58;16.90;99.90
10848;DHT22;5477;48.806;9.154;2022-07-05T00:11:28;16.80;99.90
10848;DHT22;5477;48.806;9.154;2022-07-05T00:13:56;16.80;99.90
10848;DHT22;5477;48.806;9.154;2022-07-05T00:16:24;16.70;99.90
10848;DHT22;5477;48.806;9.154;2022-07-05T00:18:52;16.70;99.90
10848;DHT22;5477;48.806;9.154;2022-07-05T00:21:21;16.70;99.90
10848;DHT22;5477;48.806;9.154;2022-07-05T00:23:50;16.60;99.90
10848;DHT22;5477;48.806;9.154;2022-07-05T00:26:18;16.70;99.90
10848;DHT22;5477;48.806;9.154;2022-07-05T00:28:48;16.70;99.90
10848;DHT22;5477;48.806;9.154;2022-07-05T00:31:16;16.70;99.90
10848;DHT22;5477;48.806;9.154;2022-07-05T00:33:44;16.60;99.90
10848;DHT22;5477;48.806;9.154;2022-07-05T00:36:12;16.50;99.90
10848;DHT22;5477;48.806;9.154;2022-07-05T00:38:40;16.50;99.90
10848;DHT22;5477;48.806;9.154;2022-07-05T00:41:10;16.60;99.90
10848;DHT22;5477;48.806;9.154;2022-07-05T00:43:54;16.60;99.90
10848;DHT22;5477;48.806;9.154;2022-07-05T00:46:22;16.60;99.90
10848;DHT22;5477;48.806;9.154;2022-07-05T00:48:51;16.60;99.90
10848;DHT22;5477;48.806;9.154;2022-07-05T00:51:21;16.50;99.90
10848;DHT22;5477;48.806;9.154;2022-07-05T00:53:49;16.60;99.90
10848;DHT22;5477;48.806;9.154;2022-07-05T00:56:19;16.60;99.90
10848;DHT22;5477;48.806;9.154;2022-07-05T00:58:48;16.60;99.90
10848;DHT22;5477;48.806;9.154;2022-07-05T01:01:18;16.70;99.90
10848;DHT22;5477;48.806;9.154;2022-07-05T01:03:47;16.60;99.90
10848;DHT22;5477;48.806;9.154;2022-07-05T01:06:15;16.60;99.90
10848;DHT22;5477;48.806;9.154;2022-07-05T01:08:45;16.60;99.90
10848;DHT22;5477;48.806;9.154;2022-07-05T01:11:14;16.60;99.90
10848;DHT22;5477;48.806;9.154;2022-07-05T01:13:42;16.60;99.90
10848;DHT22;5477;48.806;9.154;2022-07-05T01:16:10;16.60;99.90
10848;DHT22;5477;48.806;9.154;2022-07-05T01:18:43;16.60;99.90
10848;DHT22;5477;48.806;9.154;2022-07-05T01:21:12;16.50;99.90
10848;DHT22;5477;48.806;9.154;2022-07-05T01:23:46;16.50;99.90
10848;DHT22;5477;48.806;9.154;2022-07-05T01:26:15;16.40;99.90
10848;DHT22;5477;48.806;9.154;2022-07-05T01:28:44;16.30;99.90
10848;DHT22;5477;48.806;9.154;2022-07-05T01:31:12;16.10;99.90
10848;DHT22;5477;48.806;9.154;2022-07-05T01:33:40;16.00;99.90
10848;DHT22;5477;48.806;9.154;2022-07-05T01:36:10;15.90;99.90
10848;DHT22;5477;48.806;9.154;2022-07-05T01:38:39;15.90;99.90
10848;DHT22;5477;48.806;9.154;2022-07-05T01:41:09;15.90;99.90
10848;DHT22;5477;48.806;9.154;2022-07-05T01:43:37;15.90;99.90
10848;DHT22;5477;48.806;9.154;2022-07-05T01:46:06;15.90;99.90
10848;DHT22;5477;48.806;9.154;2022-07-05T01:48:39;15.90;99.90
10848;DHT22;5477;48.806;9.154;2022-07-05T01:51:15;15.90;99.90
10848;DHT22;5477;48.806;9.154;2022-07-05T01:53:46;15.90;99.90
10848;DHT22;5477;48.806;9.154;2022-07-05T01:56:19;15.80;99.90
10848;DHT22;5477;48.806;9.154;2022-07-05T01:58:48;15.80;99.90
10848;DHT22;5477;48.806;9.154;2022-07-05T02:01:31;15.70;99.90
10848;DHT22;5477;48.806;9.154;2022-07-05T02:04:00;15.70;99.90
10848;DHT22;5477;48.806;9.154;2022-07-05T02:06:30;15.80;99.90
10848;DHT22;5477;48.806;9.154;2022-07-05T02:09:03;15.70;99.90
10848;DHT22;5477;48.806;9.154;2022-07-05T02:11:34;15.70;99.90
10848;DHT22;5477;48.806;9.154;2022-07-05T02:14:04;15.70;99.90
10848;DHT22;5477;48.806;9.154;2022-07-05T02:16:35;15.70;99.90
10848;DHT22;5477;48.806;9.154;2022-07-05T02:19:04;15.70;99.90
10848;DHT22;5477;48.806;9.154;2022-07-05T02:21:36;15.70;99.90
10848;DHT22;5477;48.806;9.154;2022-07-05T02:24:08;15.60;99.90
10848;DHT22;5477;48.806;9.154;2022-07-05T02:26:45;15.50;99.90
10848;DHT22;5477;48.806;9.154;2022-07-05T02:29:14;15.30;99.90
10848;DHT22;5477;48.806;9.154;2022-07-05T02:31:44;15.30;99.90
10848;DHT22;5477;48.806;9.154;2022-07-05T02:34:13;15.30;99.90
10848;DHT22;5477;48.806;9.154;2022-07-05T02:36:43;15.20;99.90
10848;DHT22;5477;48.806;9.154;2022-07-05T02:39:13;15.30;99.90
10848;DHT22;5477;48.806;9.154;2022-07-05T02:41:42;15.30;99.90
10848;DHT22;5477;48.806;9.154;2022-07-05T02:44:15;15.30;99.90
10848;DHT22;5477;48.806;9.154;2022-07-05T02:46:43;15.30;99.90
10848;DHT22;5477;48.806;9.154;2022-07-05T02:49:11;15.20;99.90
10848;DHT22;5477;48.806;9.154;2022-07-05T02:51:40;15.20;99.90
10848;DHT22;5477;48.806;9.154;2022-07-05T02:54:10;15.20;99.90
10848;DHT22;5477;48.806;9.154;2022-07-05T02:56:39;15.20;99.90
10848;DHT22;5477;48.806;9.154;2022-07-05T02:59:10;15.20;99.90
10848;DHT22;5477;48.806;9.154;2022-07-05T03:01:40;15.30;99.90
10848;DHT22;5477;48.806;9.154;2022-07-05T03:04:13;15.30;99.90
10848;DHT22;5477;48.806;9.154;2022-07-05T03:06:48;15.50;99.90
10848;DHT22;5477;48.806;9.154;2022-07-05T03:09:21;15.40;99.90
10848;DHT22;5477;48.806;9.154;2022-07-05T03:11:49;15.40;99.90
10848;DHT22;5477;48.806;9.154;2022-07-05T03:14:18;15.40;99.90
10848;DHT22;5477;48.806;9.154;2022-07-05T03:16:49;15.30;99.90
10848;DHT22;5477;48.806;9.154;2022-07-05T03:19:20;15.30;99.90
10848;DHT22;5477;48.806;9.154;2022-07-05T03:21:48;15.30;99.90
10848;DHT22;5477;48.806;9.154;2022-07-05T03:24:19;15.30;99.90
10848;DHT22;5477;48.806;9.154;2022-07-05T03:26:48;15.30;99.90
10848;DHT22;5477;48.806;9.154;2022-07-05T03:29:16;15.20;99.90
10848;DHT22;5477;48.806;9.154;2022-07-05T03:31:46;15.20;99.90
10848;DHT22;5477;48.806;9.154;2022-07-05T03:34:16;15.20;99.90
10848;DHT22;5477;48.806;9.154;2022-07-05T03:36:44;15.20;99.90
10848;DHT22;5477;48.806;9.154;2022-07-05T03:39:16;15.30;99.90
10848;DHT22;5477;48.806;9.154;2022-07-05T03:41:46;15.30;99.90
10848;DHT22;5477;48.806;9.154;2022-07-05T03:44:19;15.20;99.90
10848;DHT22;5477;48.806;9.154;2022-07-05T03:47:06;15.10;99.90
10848;DHT22;5477;48.806;9.154;2022-07-05T03:49:36;15.00;99.90
10848;DHT22;5477;48.806;9.154;2022-07-05T03:52:04;14.90;99.90
10848;DHT22;5477;48.806;9.154;2022-07-05T03:54:32;14.80;99.90
10848;DHT22;5477;48.806;9.154;2022-07-05T03:57:04;14.80;99.90
10848;DHT22;5477;48.806;9.154;2022-07-05T03:59:33;14.80;99.90
10848;DHT22;5477;48.806;9.154;2022-07-05T04:02:03;14.90;99.90
10848;DHT22;5477;48.806;9.154;2022-07-05T04:04:31;14.90;99.90
10848;DHT22;5477;48.806;9.154;2022-07-05T04:07:00;14.90;99.90
10848;DHT22;5477;48.806;9.154;2022-07-05T04:09:28;15.00;99.90
10848;DHT22;5477;48.806;9.154;2022-07-05T04:11:59;15.10;99.90
10848;DHT22;5477;48.806;9.154;2022-07-05T04:14:29;15.30;99.90
10848;DHT22;5477;48.806;9.154;2022-07-05T04:17:00;15.30;99.90
10848;DHT22;5477;48.806;9.154;2022-07-05T04:19:29;15.40;99.90
10848;DHT22;5477;48.806;9.154;2022-07-05T04:22:00;15.40;99.90
10848;DHT22;5477;48.806;9.154;2022-07-05T04:24:29;15.50;99.90
10848;DHT22;5477;48.806;9.154;2022-07-05T04:26:59;15.60;99.90
10848;DHT22;5477;48.806;9.154;2022-07-05T04:29:27;15.50;99.90
10848;DHT22;5477;48.806;9.154;2022-07-05T04:31:55;15.30;99.90
10848;DHT22;5477;48.806;9.154;2022-07-05T04:34:23;15.30;99.90
10848;DHT22;5477;48.806;9.154;2022-07-05T04:36:53;15.30;99.90
10848;DHT22;5477;48.806;9.154;2022-07-05T04:39:23;15.30;99.90
10848;DHT22;5477;48.806;9.154;2022-07-05T04:42:00;15.40;99.90
10848;DHT22;5477;48.806;9.154;2022-07-05T04:44:29;15.60;99.90
10848;DHT22;5477;48.806;9.154;2022-07-05T04:46:57;15.70;99.90
10848;DHT22;5477;48.806;9.154;2022-07-05T04:49:25;15.80;99.90
10848;DHT22;5477;48.806;9.154;2022-07-05T04:51:53;16.00;99.90
10848;DHT22;5477;48.806;9.154;2022-07-05T04:54:22;16.00;99.90
10848;DHT22;5477;48.806;9.154;2022-07-05T04:56:50;16.20;99.90
10848;DHT22;5477;48.806;9.154;2022-07-05T04:59:18;16.40;99.90
10848;DHT22;5477;48.806;9.154;2022-07-05T05:01:53;16.50;99.90
10848;DHT22;5477;48.806;9.154;2022-07-05T05:04:21;16.60;99.90
10848;DHT22;5477;48.806;9.154;2022-07-05T05:06:49;16.70;99.90
10848;DHT22;5477;48.806;9.154;2022-07-05T05:09:17;16.80;99.90
10848;DHT22;5477;48.806;9.154;2022-07-05T05:11:48;16.80;99.90
10848;DHT22;5477;48.806;9.154;2022-07-05T05:14:16;16.90;99.90
10848;DHT22;5477;48.806;9.154;2022-07-05T05:16:44;17.00;99.90
10848;DHT22;5477;48.806;9.154;2022-07-05T05:19:12;17.10;99.90
10848;DHT22;5477;48.806;9.154;2022-07-05T05:21:40;17.30;99.90
10848;DHT22;5477;48.806;9.154;2022-07-05T05:24:08;17.40;99.90
10848;DHT22;5477;48.806;9.154;2022-07-05T05:26:37;17.60;99.90
10848;DHT22;5477;48.806;9.154;2022-07-05T05:29:06;17.70;99.90
10848;DHT22;5477;48.806;9.154;2022-07-05T05:31:34;17.80;99.90
10848;DHT22;5477;48.806;9.154;2022-07-05T05:34:03;18.10;99.90
10848;DHT22;5477;48.806;9.154;2022-07-05T05:36:31;18.20;99.90
10848;DHT22;5477;48.806;9.154;2022-07-05T05:39:00;18.30;99.90
10848;DHT22;5477;48.806;9.154;2022-07-05T05:41:28;18.40;99.90
10848;DHT22;5477;48.806;9.154;2022-07-05T05:43:56;18.70;99.90
10848;DHT22;5477;48.806;9.154;2022-07-05T05:46:26;18.80;99.90
10848;DHT22;5477;48.806;9.154;2022-07-05T05:48:54;19.00;99.90
10848;DHT22;5477;48.806;9.154;2022-07-05T05:51:22;19.10;99.90
10848;DHT22;5477;48.806;9.154;2022-07-05T05:53:51;19.30;99.90
10848;DHT22;5477;48.806;9.154;2022-07-05T05:56:19;19.40;99.90
10848;DHT22;5477;48.806;9.154;2022-07-05T05:58:47;19.50;99.90
10848;DHT22;5477;48.806;9.154;2022-07-05T06:01:15;19.60;99.90
10848;DHT22;5477;48.806;9.154;2022-07-05T06:03:45;19.80;99.90
10848;DHT22;5477;48.806;9.154;2022-07-05T06:06:13;19.90;99.90
10848;DHT22;5477;48.806;9.154;2022-07-05T06:08:41;20.10;99.90
10848;DHT22;5477;48.806;9.154;2022-07-05T06:11:10;20.30;99.90
10848;DHT22;5477;48.806;9.154;2022-07-05T06:13:38;20.40;99.90
10848;DHT22;5477;48.806;9.154;2022-07-05T06:16:07;20.50;99.90
10848;DHT22;5477;48.806;9.154;2022-07-05T06:18:35;20.70;99.90
10848;DHT22;5477;48.806;9.154;2022-07-05T06:21:05;20.80;99.90
10848;DHT22;5477;48.806;9.154;2022-07-05T06:23:33;20.90;99.90
10848;DHT22;5477;48.806;9.154;2022-07-05T06:26:01;21.00;99.90
10848;DHT22;5477;48.806;9.154;2022-07-05T06:28:29;21.00;99.90
10848;DHT22;5477;48.806;9.154;2022-07-05T06:30:58;21.10;99.90
10848;DHT22;5477;48.806;9.154;2022-07-05T06:33:27;21.00;99.90
10848;DHT22;5477;48.806;9.154;2022-07-05T06:35:56;21.00;99.90
10848;DHT22;5477;48.806;9.154;2022-07-05T06:38:28;21.10;99.90
10848;DHT22;5477;48.806;9.154;2022-07-05T06:40:56;21.30;99.90
10848;DHT22;5477;48.806;9.154;2022-07-05T06:43:26;21.40;99.90
10848;DHT22;5477;48.806;9.154;2022-07-05T06:46:01;21.40;99.90
10848;DHT22;5477;48.806;9.154;2022-07-05T06:48:29;21.40;99.90
10848;DHT22;5477;48.806;9.154;2022-07-05T06:50:57;21.60;99.90
10848;DHT22;5477;48.806;9.154;2022-07-05T06:53:27;21.70;99.40
10848;DHT22;5477;48.806;9.154;2022-07-05T06:55:55;21.80;99.00
10848;DHT22;5477;48.806;9.154;2022-07-05T06:58:23;21.90;98.90
10848;DHT22;5477;48.806;9.154;2022-07-05T07:00:52;22.00;98.40
10848;DHT22;5477;48.806;9.154;2022-07-05T07:03:40;22.00;98.20
10848;DHT22;5477;48.806;9.154;2022-07-05T07:06:28;22.10;98.30
10848;DHT22;5477;48.806;9.154;2022-07-05T07:08:59;22.30;98.10
10848;DHT22;5477;48.806;9.154;2022-07-05T07:11:45;22.10;98.10
10848;DHT22;5477;48.806;9.154;2022-07-05T07:14:15;22.20;98.30
10848;DHT22;5477;48.806;9.154;2022-07-05T07:16:44;22.30;98.10
10848;DHT22;5477;48.806;9.154;2022-07-05T07:19:12;22.40;97.90
10848;DHT22;5477;48.806;9.154;2022-07-05T07:21:42;22.40;98.00
10848;DHT22;5477;48.806;9.154;2022-07-05T07:24:12;22.50;98.00
10848;DHT22;5477;48.806;9.154;2022-07-05T07:26:40;22.70;97.10
10848;DHT22;5477;48.806;9.154;2022-07-05T07:29:27;22.80;96.40
10848;DHT22;5477;48.806;9.154;2022-07-05T07:31:55;22.60;96.70
10848;DHT22;5477;48.806;9.154;2022-07-05T07:34:24;22.50;96.90
10848;DHT22;5477;48.806;9.154;2022-07-05T07:36:53;22.50;96.80
10848;DHT22;5477;48.806;9.154;2022-07-05T07:39:23;22.60;97.10
10848;DHT22;5477;48.806;9.154;2022-07-05T07:41:50;22.70;97.90
10848;DHT22;5477;48.806;9.154;2022-07-05T07:44:19;22.80;97.80
10848;DHT22;5477;48.806;9.154;2022-07-05T07:46:47;22.90;97.40
10848;DHT22;5477;48.806;9.154;2022-07-05T07:49:16;22.90;96.90
10848;DHT22;5477;48.806;9.154;2022-07-05T07:51:45;23.00;96.60
10848;DHT22;5477;48.806;9.154;2022-07-05T07:54:13;22.80;97.00
10848;DHT22;5477;48.806;9.154;2022-07-05T07:56:43;22.70;97.00
10848;DHT22;5477;48.806;9.154;2022-07-05T07:59:11;22.70;96.80
10848;DHT22;5477;48.806;9.154;2022-07-05T08:01:40;22.80;96.90
10848;DHT22;5477;48.806;9.154;2022-07-05T08:04:13;22.90;97.00
10848;DHT22;5477;48.806;9.154;2022-07-05T08:06:42;23.00;96.80
10848;DHT22;5477;48.806;9.154;2022-07-05T08:09:12;23.20;97.10
10848;DHT22;5477;48.806;9.154;2022-07-05T08:11:46;23.20;97.00
10848;DHT22;5477;48.806;9.154;2022-07-05T08:14:14;23.20;96.40
10848;DHT22;5477;48.806;9.154;2022-07-05T08:16:43;23.30;96.50
10848;DHT22;5477;48.806;9.154;2022-07-05T08:19:18;23.20;96.20
10848;DHT22;5477;48.806;9.154;2022-07-05T08:22:04;23.20;96.10
10848;DHT22;5477;48.806;9.154;2022-07-05T08:24:35;23.30;96.00
10848;DHT22;5477;48.806;9.154;2022-07-05T08:27:06;23.50;96.00
10848;DHT22;5477;48.806;9.154;2022-07-05T08:29:35;23.60;95.40
10848;DHT22;5477;48.806;9.154;2022-07-05T08:32:04;23.60;95.00
10848;DHT22;5477;48.806;9.154;2022-07-05T08:34:32;23.70;95.00
10848;DHT22;5477;48.806;9.154;2022-07-05T08:37:02;23.80;94.40
10848;DHT22;5477;48.806;9.154;2022-07-05T08:39:33;23.90;93.70
10848;DHT22;5477;48.806;9.154;2022-07-05T08:42:02;23.90;93.70
10848;DHT22;5477;48.806;9.154;2022-07-05T08:44:33;24.00;93.50
10848;DHT22;5477;48.806;9.154;2022-07-05T08:47:10;24.00;93.50
10848;DHT22;5477;48.806;9.154;2022-07-05T08:49:41;23.90;93.40
10848;DHT22;5477;48.806;9.154;2022-07-05T08:52:12;23.90;93.70
10848;DHT22;5477;48.806;9.154;2022-07-05T08:54:40;24.00;92.90
10848;DHT22;5477;48.806;9.154;2022-07-05T08:57:09;24.00;93.30
10848;DHT22;5477;48.806;9.154;2022-07-05T08:59:41;24.20;94.00
10848;DHT22;5477;48.806;9.154;2022-07-05T09:02:12;24.40;94.40
10848;DHT22;5477;48.806;9.154;2022-07-05T09:04:43;24.50;93.80
10848;DHT22;5477;48.806;9.154;2022-07-05T09:07:16;24.60;92.70
10848;DHT22;5477;48.806;9.154;2022-07-05T09:09:47;24.70;91.50
10848;DHT22;5477;48.806;9.154;2022-07-05T09:12:18;24.70;90.20
10848;DHT22;5477;48.806;9.154;2022-07-05T09:14:53;24.60;90.10
10848;DHT22;5477;48.806;9.154;2022-07-05T09:17:23;24.60;91.30
10848;DHT22;5477;48.806;9.154;2022-07-05T09:20:08;24.60;91.20
10848;DHT22;5477;48.806;9.154;2022-07-05T09:22:48;24.80;90.40
10848;DHT22;5477;48.806;9.154;2022-07-05T09:25:18;25.00;90.20
10848;DHT22;5477;48.806;9.154;2022-07-05T09:27:49;25.10;89.60
10848;DHT22;5477;48.806;9.154;2022-07-05T09:30:33;25.20;85.80
10848;DHT22;5477;48.806;9.154;2022-07-05T09:33:06;25.20;83.40
10848;DHT22;5477;48.806;9.154;2022-07-05T09:35:36;25.20;84.00
10848;DHT22;5477;48.806;9.154;2022-07-05T09:38:05;25.30;83.30
10848;DHT22;5477;48.806;9.154;2022-07-05T09:40:45;25.40;85.40
10848;DHT22;5477;48.806;9.154;2022-07-05T09:43:15;25.50;84.70
10848;DHT22;5477;48.806;9.154;2022-07-05T09:45:58;25.50;82.00
10848;DHT22;5477;48.806;9.154;2022-07-05T09:48:28;25.80;82.70
10848;DHT22;5477;48.806;9.154;2022-07-05T09:51:08;25.80;80.50
10848;DHT22;5477;48.806;9.154;2022-07-05T09:53:58;25.80;80.30
10848;DHT22;5477;48.806;9.154;2022-07-05T09:56:43;25.80;80.30
10848;DHT22;5477;48.806;9.154;2022-07-05T09:59:15;26.00;80.70
10848;DHT22;5477;48.806;9.154;2022-07-05T10:01:46;26.30;78.50
10848;DHT22;5477;48.806;9.154;2022-07-05T10:04:15;26.50;76.20
10848;DHT22;5477;48.806;9.154;2022-07-05T10:06:44;26.60;77.50
10848;DHT22;5477;48.806;9.154;2022-07-05T10:09:12;26.80;74.80
10848;DHT22;5477;48.806;9.154;2022-07-05T10:11:43;26.90;74.10
10848;DHT22;5477;48.806;9.154;2022-07-05T10:14:17;27.20;71.70
10848;DHT22;5477;48.806;9.154;2022-07-05T10:16:52;27.30;70.80
10848;DHT22;5477;48.806;9.154;2022-07-05T10:19:27;27.40;68.40
10848;DHT22;5477;48.806;9.154;2022-07-05T10:21:58;27.60;67.00
10848;DHT22;5477;48.806;9.154;2022-07-05T10:24:44;27.70;66.70
10848;DHT22;5477;48.806;9.154;2022-07-05T10:27:15;27.80;65.80
10848;DHT22;5477;48.806;9.154;2022-07-05T10:29:46;28.00;65.00
10848;DHT22;5477;48.806;9.154;2022-07-05T10:32:18;28.30;64.80
10848;DHT22;5477;48.806;9.154;2022-07-05T10:34:47;28.50;60.40
10848;DHT22;5477;48.806;9.154;2022-07-05T10:37:22;28.60;61.30
10848;DHT22;5477;48.806;9.154;2022-07-05T10:39:52;28.70;58.90
10848;DHT22;5477;48.806;9.154;2022-07-05T10:42:21;28.80;59.50
10848;DHT22;5477;48.806;9.154;2022-07-05T10:44:50;28.90;58.70
10848;DHT22;5477;48.806;9.154;2022-07-05T10:47:20;28.70;58.40
10848;DHT22;5477;48.806;9.154;2022-07-05T10:50:00;28.90;59.00
10848;DHT22;5477;48.806;9.154;2022-07-05T10:52:28;28.50;58.80
10848;DHT22;5477;48.806;9.154;2022-07-05T10:55:22;28.00;58.70
10848;DHT22;5477;48.806;9.154;2022-07-05T10:58:19;28.20;58.60
10848;DHT22;5477;48.806;9.154;2022-07-05T11:00:49;28.40;58.90
10848;DHT22;5477;48.806;9.154;2022-07-05T11:03:40;28.50;58.30
10848;DHT22;5477;48.806;9.154;2022-07-05T11:06:11;28.70;57.40
10848;DHT22;5477;48.806;9.154;2022-07-05T11:09:13;28.90;57.40
10848;DHT22;5477;48.806;9.154;2022-07-05T11:11:44;29.10;57.80
10848;DHT22;5477;48.806;9.154;2022-07-05T11:14:35;28.90;57.60
10848;DHT22;5477;48.806;9.154;2022-07-05T11:17:18;28.50;58.10
10848;DHT22;5477;48.806;9.154;2022-07-05T11:20:16;28.80;57.30
10848;DHT22;5477;48.806;9.154;2022-07-05T11:23:06;29.10;55.80
10848;DHT22;5477;48.806;9.154;2022-07-05T11:25:40;29.70;55.20
10848;DHT22;5477;48.806;9.154;2022-07-05T11:28:28;29.60;54.70
10848;DHT22;5477;48.806;9.154;2022-07-05T11:31:10;29.80;54.80
10848;DHT22;5477;48.806;9.154;2022-07-05T11:33:40;30.00;53.70
10848;DHT22;5477;48.806;9.154;2022-07-05T11:36:22;30.10;53.70
10848;DHT22;5477;48.806;9.154;2022-07-05T11:39:10;30.10;54.20
10848;DHT22;5477;48.806;9.154;2022-07-05T11:41:43;30.40;53.70
10848;DHT22;5477;48.806;9.154;2022-07-05T11:44:11;30.60;53.10
10848;DHT22;5477;48.806;9.154;2022-07-05T11:46:43;30.80;53.00
10848;DHT22;5477;48.806;9.154;2022-07-05T11:49:23;30.70;53.10
10848;DHT22;5477;48.806;9.154;2022-07-05T11:52:02;30.80;53.10
10848;DHT22;5477;48.806;9.154;2022-07-05T11:54:33;30.70;52.90
10848;DHT22;5477;48.806;9.154;2022-07-05T11:57:02;30.30;53.10
10848;DHT22;5477;48.806;9.154;2022-07-05T11:59:31;30.40;53.50
10848;DHT22;5477;48.806;9.154;2022-07-05T12:02:05;30.50;53.10
10848;DHT22;5477;48.806;9.154;2022-07-05T12:04:33;30.80;52.40
10848;DHT22;5477;48.806;9.154;2022-07-05T12:07:03;30.70;52.50
10848;DHT22;5477;48.806;9.154;2022-07-05T12:09:32;31.20;52.00
10848;DHT22;5477;48.806;9.154;2022-07-05T12:12:17;31.50;51.50
10848;DHT22;5477;48.806;9.154;2022-07-05T12:15:03;31.70;51.40
10848;DHT22;5477;48.806;9.154;2022-07-05T12:17:33;31.80;51.10
10848;DHT22;5477;48.806;9.154;2022-07-05T12:20:03;31.60;51.20
10848;DHT22;5477;48.806;9.154;2022-07-05T12:22:36;32.00;51.40
10848;DHT22;5477;48.806;9.154;2022-07-05T12:25:06;31.80;51.80
10848;DHT22;5477;48.806;9.154;2022-07-05T12:27:37;31.90;51.40
10848;DHT22;5477;48.806;9.154;2022-07-05T12:30:07;32.00;50.60
10848;DHT22;5477;48.806;9.154;2022-07-05T12:32:54;32.00;51.30
10848;DHT22;5477;48.806;9.154;2022-07-05T12:35:33;31.60;50.80
10848;DHT22;5477;48.806;9.154;2022-07-05T12:38:13;31.60;50.60
10848;DHT22;5477;48.806;9.154;2022-07-05T12:40:45;31.60;51.80
10848;DHT22;5477;48.806;9.154;2022-07-05T12:43:15;31.10;52.10
10848;DHT22;5477;48.806;9.154;2022-07-05T12:45:59;31.20;51.50
10848;DHT22;5477;48.806;9.154;2022-07-05T12:48:30;31.60;50.80
10848;DHT22;5477;48.806;9.154;2022-07-05T12:50:59;32.20;50.30
10848;DHT22;5477;48.806;9.154;2022-07-05T12:53:48;33.00;49.90
10848;DHT22;5477;48.806;9.154;2022-07-05T12:56:35;33.70;48.70
10848;DHT22;5477;48.806;9.154;2022-07-05T12:59:56;33.80;47.90
10848;DHT22;5477;48.806;9.154;2022-07-05T13:02:34;33.30;47.90
10848;DHT22;5477;48.806;9.154;2022-07-05T13:05:06;32.20;48.70
10848;DHT22;5477;48.806;9.154;2022-07-05T13:07:41;31.10;50.10
10848;DHT22;5477;48.806;9.154;2022-07-05T13:10:16;31.20;50.90
10848;DHT22;5477;48.806;9.154;2022-07-05T13:12:44;31.80;49.30
10848;DHT22;5477;48.806;9.154;2022-07-05T13:15:20;32.20;48.80
10848;DHT22;5477;48.806;9.154;2022-07-05T13:17:49;33.20;48.50
10848;DHT22;5477;48.806;9.154;2022-07-05T13:20:19;33.70;48.00
10848;DHT22;5477;48.806;9.154;2022-07-05T13:22:49;33.70;46.60
10848;DHT22;5477;48.806;9.154;2022-07-05T13:25:19;33.00;47.20
10848;DHT22;5477;48.806;9.154;2022-07-05T13:27:48;33.50;46.90
10848;DHT22;5477;48.806;9.154;2022-07-05T13:30:16;33.90;46.60
10848;DHT22;5477;48.806;9.154;2022-07-05T13:32:44;34.00;46.10
10848;DHT22;5477;48.806;9.154;2022-07-05T13:35:13;34.40;45.70
10848;DHT22;5477;48.806;9.154;2022-07-05T13:37:41;35.10;44.60
10848;DHT22;5477;48.806;9.154;2022-07-05T13:40:10;34.40;45.50
10848;DHT22;5477;48.806;9.154;2022-07-05T13:42:40;34.60;45.30
10848;DHT22;5477;48.806;9.154;2022-07-05T13:45:08;34.20;44.60
10848;DHT22;5477;48.806;9.154;2022-07-05T13:47:37;34.50;45.10
10848;DHT22;5477;48.806;9.154;2022-07-05T13:50:05;34.80;44.30
10848;DHT22;5477;48.806;9.154;2022-07-05T13:52:51;34.80;43.80
10848;DHT22;5477;48.806;9.154;2022-07-05T13:55:21;34.70;44.10
10848;DHT22;5477;48.806;9.154;2022-07-05T13:57:52;34.60;43.60
10848;DHT22;5477;48.806;9.154;2022-07-05T14:00:23;34.60;44.00
10848;DHT22;5477;48.806;9.154;2022-07-05T14:02:53;35.40;43.50
10848;DHT22;5477;48.806;9.154;2022-07-05T14:05:30;35.70;42.80
10848;DHT22;5477;48.806;9.154;2022-07-05T14:07:58;35.80;42.50
10848;DHT22;5477;48.806;9.154;2022-07-05T14:10:27;35.70;42.50
10848;DHT22;5477;48.806;9.154;2022-07-05T14:12:56;36.20;41.90
10848;DHT22;5477;48.806;9.154;2022-07-05T14:15:24;36.20;41.90
10848;DHT22;5477;48.806;9.154;2022-07-05T14:17:53;35.40;42.20
10848;DHT22;5477;48.806;9.154;2022-07-05T14:20:21;35.20;42.30
10848;DHT22;5477;48.806;9.154;2022-07-05T14:22:50;35.40;42.20
10848;DHT22;5477;48.806;9.154;2022-07-05T14:25:18;35.50;41.60
10848;DHT22;5477;48.806;9.154;2022-07-05T14:27:47;35.00;41.50
10848;DHT22;5477;48.806;9.154;2022-07-05T14:30:16;34.80;42.00
10848;DHT22;5477;48.806;9.154;2022-07-05T14:32:45;34.80;41.90
10848;DHT22;5477;48.806;9.154;2022-07-05T14:35:15;34.60;42.00
10848;DHT22;5477;48.806;9.154;2022-07-05T14:37:43;34.60;42.40
10848;DHT22;5477;48.806;9.154;2022-07-05T14:40:11;34.80;42.50
10848;DHT22;5477;48.806;9.154;2022-07-05T14:42:40;35.10;41.90
10848;DHT22;5477;48.806;9.154;2022-07-05T14:45:09;35.20;41.50
10848;DHT22;5477;48.806;9.154;2022-07-05T14:47:39;35.50;41.40
10848;DHT22;5477;48.806;9.154;2022-07-05T14:50:07;34.50;41.60
10848;DHT22;5477;48.806;9.154;2022-07-05T14:52:35;33.50;43.10
10848;DHT22;5477;48.806;9.154;2022-07-05T14:55:04;34.00;43.30
10848;DHT22;5477;48.806;9.154;2022-07-05T14:57:35;34.80;42.30
10848;DHT22;5477;48.806;9.154;2022-07-05T15:00:05;35.60;41.40
10848;DHT22;5477;48.806;9.154;2022-07-05T15:02:34;35.20;41.00
10848;DHT22;5477;48.806;9.154;2022-07-05T15:05:04;34.20;42.60
10848;DHT22;5477;48.806;9.154;2022-07-05T15:07:32;33.80;42.80
10848;DHT22;5477;48.806;9.154;2022-07-05T15:10:00;34.20;42.70
10848;DHT22;5477;48.806;9.154;2022-07-05T15:12:28;34.90;42.00
10848;DHT22;5477;48.806;9.154;2022-07-05T15:14:56;34.80;41.40
10848;DHT22;5477;48.806;9.154;2022-07-05T15:17:26;34.90;41.20
10848;DHT22;5477;48.806;9.154;2022-07-05T15:19:55;34.50;41.80
10848;DHT22;5477;48.806;9.154;2022-07-05T15:22:25;34.40;41.50
10848;DHT22;5477;48.806;9.154;2022-07-05T15:24:53;34.70;41.60
10848;DHT22;5477;48.806;9.154;2022-07-05T15:27:22;34.50;41.40
10848;DHT22;5477;48.806;9.154;2022-07-05T15:29:52;34.90;41.90
10848;DHT22;5477;48.806;9.154;2022-07-05T15:32:20;35.30;40.50
10848;DHT22;5477;48.806;9.154;2022-07-05T15:34:50;35.90;40.50
10848;DHT22;5477;48.806;9.154;2022-07-05T15:37:18;36.60;39.50
10848;DHT22;5477;48.806;9.154;2022-07-05T15:39:48;37.20;39.10
10848;DHT22;5477;48.806;9.154;2022-07-05T15:42:16;37.20;38.70
10848;DHT22;5477;48.806;9.154;2022-07-05T15:44:46;37.00;38.60
10848;DHT22;5477;48.806;9.154;2022-07-05T15:47:24;36.90;38.80
10848;DHT22;5477;48.806;9.154;2022-07-05T15:49:53;36.50;39.00
10848;DHT22;5477;48.806;9.154;2022-07-05T15:52:22;37.00;38.90
10848;DHT22;5477;48.806;9.154;2022-07-05T15:54:51;38.10;38.00
10848;DHT22;5477;48.806;9.154;2022-07-05T15:57:19;38.00;37.20
10848;DHT22;5477;48.806;9.154;2022-07-05T15:59:49;37.10;37.80
10848;DHT22;5477;48.806;9.154;2022-07-05T16:02:17;37.10;37.90
10848;DHT22;5477;48.806;9.154;2022-07-05T16:04:46;37.40;37.20
10848;DHT22;5477;48.806;9.154;2022-07-05T16:07:14;37.40;37.70
10848;DHT22;5477;48.806;9.154;2022-07-05T16:09:42;38.10;36.90
10848;DHT22;5477;48.806;9.154;2022-07-05T16:12:32;37.70;37.40